sensor_id;sensor_type;location;lat;lon;timestamp;P1;durP1;ratioP1;P2;durP2;ratioP2
64291;SDS011;50628;51.008;13.658;2023-04-07T00:04:26;9.87;;;6.97;;
64291;SDS011;50628;51.008;13.658;2023-04-07T00:09:29;10.53;;;6.83;;
64291;SDS011;50628;51.008;13.658;2023-04-07T00:14:31;10.23;;;7.40;;
64291;SDS011;50628;51.008;13.658;2023-04-07T00:19:33;7.07;;;6.30;;
64291;SDS011;50628;51.008;13.658;2023-04-07T00:24:36;8.87;;;6.77;;
64291;SDS011;50628;51.008;13.658;2023-04-07T00:29:38;9.50;;;7.77;;
64291;SDS011;50628;51.008;13.658;2023-04-07T00:34:40;9.87;;;6.90;;
64291;SDS011;50628;51.008;13.658;2023-04-07T00:39:43;9.27;;;6.90;;
64291;SDS011;50628;51.008;13.658;2023-04-07T00:44:45;8.80;;;7.70;;
64291;SDS011;50628;51.008;13.658;2023-04-07T00:49:47;11.70;;;9.03;;
64291;SDS011;50628;51.008;13.658;2023-04-07T00:54:50;9.93;;;8.10;;
64291;SDS011;50628;51.008;13.658;2023-04-07T00:59:52;10.23;;;8.03;;
64291;SDS011;50628;51.008;13.658;2023-04-07T01:04:58;9.63;;;7.53;;
64291;SDS011;50628;51.008;13.658;2023-04-07T01:10:13;8.53;;;7.43;;
64291;SDS011;50628;51.008;13.658;2023-04-07T01:15:28;8.27;;;6.73;;
64291;SDS011;50628;51.008;13.658;2023-04-07T01:20:33;9.20;;;6.53;;
64291;SDS011;50628;51.008;13.658;2023-04-07T01:25:48;9.47;;;7.13;;
64291;SDS011;50628;51.008;13.658;2023-04-07T01:31:02;8.87;;;7.90;;
64291;SDS011;50628;51.008;13.658;2023-04-07T01:36:06;8.87;;;7.90;;
64291;SDS011;50628;51.008;13.658;2023-04-07T01:41:09;10.63;;;6.77;;
64291;SDS011;50628;51.008;13.658;2023-04-07T01:46:15;12.17;;;7.20;;
64291;SDS011;50628;51.008;13.658;2023-04-07T01:51:17;9.83;;;6.83;;
64291;SDS011;50628;51.008;13.658;2023-04-07T01:56:21;14.30;;;7.03;;
64291;SDS011;50628;51.008;13.658;2023-04-07T02:01:28;8.33;;;6.50;;
64291;SDS011;50628;51.008;13.658;2023-04-07T02:06:31;8.27;;;7.33;;
64291;SDS011;50628;51.008;13.658;2023-04-07T02:11:36;9.73;;;6.40;;
64291;SDS011;50628;51.008;13.658;2023-04-07T02:16:42;6.27;;;5.47;;
64291;SDS011;50628;51.008;13.658;2023-04-07T02:21:46;6.60;;;5.60;;
64291;SDS011;50628;51.008;13.658;2023-04-07T02:26:51;7.43;;;6.00;;
64291;SDS011;50628;51.008;13.658;2023-04-07T02:31:55;6.30;;;5.70;;
64291;SDS011;50628;51.008;13.658;2023-04-07T02:36:57;8.27;;;5.80;;
64291;SDS011;50628;51.008;13.658;2023-04-07T02:42:01;10.20;;;7.23;;
64291;SDS011;50628;51.008;13.658;2023-04-07T02:47:04;10.27;;;6.30;;
64291;SDS011;50628;51.008;13.658;2023-04-07T02:52:06;7.10;;;6.10;;
64291;SDS011;50628;51.008;13.658;2023-04-07T02:57:08;6.90;;;5.47;;
64291;SDS011;50628;51.008;13.658;2023-04-07T03:02:11;7.67;;;5.53;;
64291;SDS011;50628;51.008;13.658;2023-04-07T03:07:13;9.40;;;5.73;;
64291;SDS011;50628;51.008;13.658;2023-04-07T03:12:15;10.07;;;5.50;;
64291;SDS011;50628;51.008;13.658;2023-04-07T03:17:19;9.27;;;5.63;;
64291;SDS011;50628;51.008;13.658;2023-04-07T03:22:21;8.40;;;7.50;;
64291;SDS011;50628;51.008;13.658;2023-04-07T03:27:26;7.80;;;6.30;;
64291;SDS011;50628;51.008;13.658;2023-04-07T03:32:30;9.03;;;5.63;;
64291;SDS011;50628;51.008;13.658;2023-04-07T03:37:32;9.50;;;5.80;;
64291;SDS011;50628;51.008;13.658;2023-04-07T03:42:35;7.63;;;5.30;;
64291;SDS011;50628;51.008;13.658;2023-04-07T03:47:41;10.73;;;6.20;;
64291;SDS011;50628;51.008;13.658;2023-04-07T03:52:44;12.63;;;5.97;;
64291;SDS011;50628;51.008;13.658;2023-04-07T03:57:55;7.10;;;6.10;;
64291;SDS011;50628;51.008;13.658;2023-04-07T04:03:02;7.87;;;6.47;;
64291;SDS011;50628;51.008;13.658;2023-04-07T04:08:06;5.97;;;5.00;;
64291;SDS011;50628;51.008;13.658;2023-04-07T04:13:11;8.67;;;5.60;;
64291;SDS011;50628;51.008;13.658;2023-04-07T04:18:17;6.70;;;5.77;;
64291;SDS011;50628;51.008;13.658;2023-04-07T04:23:19;13.53;;;6.63;;
64291;SDS011;50628;51.008;13.658;2023-04-07T04:28:24;8.43;;;5.30;;
64291;SDS011;50628;51.008;13.658;2023-04-07T04:33:28;8.00;;;5.60;;
64291;SDS011;50628;51.008;13.658;2023-04-07T04:38:32;11.33;;;5.70;;
64291;SDS011;50628;51.008;13.658;2023-04-07T04:43:40;6.57;;;5.10;;
64291;SDS011;50628;51.008;13.658;2023-04-07T04:48:45;11.13;;;5.83;;
64291;SDS011;50628;51.008;13.658;2023-04-07T04:53:47;9.83;;;6.30;;
64291;SDS011;50628;51.008;13.658;2023-04-07T04:58:50;11.37;;;6.23;;
64291;SDS011;50628;51.008;13.658;2023-04-07T05:04:02;7.43;;;5.23;;
64291;SDS011;50628;51.008;13.658;2023-04-07T05:09:04;9.47;;;5.97;;
64291;SDS011;50628;51.008;13.658;2023-04-07T05:14:14;8.23;;;4.83;;
64291;SDS011;50628;51.008;13.658;2023-04-07T05:19:24;7.27;;;5.87;;
64291;SDS011;50628;51.008;13.658;2023-04-07T05:24:30;8.13;;;5.87;;
64291;SDS011;50628;51.008;13.658;2023-04-07T05:29:34;7.57;;;5.63;;
64291;SDS011;50628;51.008;13.658;2023-04-07T05:34:39;17.90;;;7.20;;
64291;SDS011;50628;51.008;13.658;2023-04-07T05:39:43;6.43;;;5.07;;
64291;SDS011;50628;51.008;13.658;2023-04-07T05:44:47;14.33;;;5.90;;
64291;SDS011;50628;51.008;13.658;2023-04-07T05:49:52;7.97;;;5.23;;
64291;SDS011;50628;51.008;13.658;2023-04-07T05:54:54;11.50;;;5.60;;
64291;SDS011;50628;51.008;13.658;2023-04-07T05:59:59;11.27;;;5.93;;
64291;SDS011;50628;51.008;13.658;2023-04-07T06:05:06;9.40;;;5.57;;
64291;SDS011;50628;51.008;13.658;2023-04-07T06:10:08;7.53;;;5.77;;
64291;SDS011;50628;51.008;13.658;2023-04-07T06:15:10;7.00;;;4.70;;
64291;SDS011;50628;51.008;13.658;2023-04-07T06:20:13;6.43;;;4.60;;
64291;SDS011;50628;51.008;13.658;2023-04-07T06:25:15;8.53;;;5.80;;
64291;SDS011;50628;51.008;13.658;2023-04-07T06:30:17;7.83;;;5.67;;
64291;SDS011;50628;51.008;13.658;2023-04-07T06:35:21;7.57;;;5.07;;
64291;SDS011;50628;51.008;13.658;2023-04-07T06:40:26;8.70;;;6.10;;
64291;SDS011;50628;51.008;13.658;2023-04-07T06:45:27;10.03;;;6.70;;
64291;SDS011;50628;51.008;13.658;2023-04-07T06:50:31;10.40;;;6.20;;
64291;SDS011;50628;51.008;13.658;2023-04-07T06:55:32;10.97;;;6.50;;
64291;SDS011;50628;51.008;13.658;2023-04-07T07:00:34;9.43;;;5.23;;
64291;SDS011;50628;51.008;13.658;2023-04-07T07:05:38;10.23;;;6.23;;
64291;SDS011;50628;51.008;13.658;2023-04-07T07:10:40;11.53;;;6.83;;
64291;SDS011;50628;51.008;13.658;2023-04-07T07:15:42;11.97;;;6.63;;
64291;SDS011;50628;51.008;13.658;2023-04-07T07:20:45;15.67;;;6.13;;
64291;SDS011;50628;51.008;13.658;2023-04-07T07:25:47;23.97;;;6.90;;
64291;SDS011;50628;51.008;13.658;2023-04-07T07:30:48;11.97;;;6.97;;
64291;SDS011;50628;51.008;13.658;2023-04-07T07:35:52;12.07;;;6.87;;
64291;SDS011;50628;51.008;13.658;2023-04-07T07:40:53;10.37;;;6.33;;
64291;SDS011;50628;51.008;13.658;2023-04-07T07:45:55;13.87;;;6.57;;
64291;SDS011;50628;51.008;13.658;2023-04-07T07:50:59;11.83;;;6.53;;
64291;SDS011;50628;51.008;13.658;2023-04-07T07:56:00;12.37;;;6.20;;
64291;SDS011;50628;51.008;13.658;2023-04-07T08:01:02;8.93;;;6.33;;
64291;SDS011;50628;51.008;13.658;2023-04-07T08:06:06;10.70;;;7.30;;
64291;SDS011;50628;51.008;13.658;2023-04-07T08:11:08;9.60;;;6.53;;
64291;SDS011;50628;51.008;13.658;2023-04-07T08:16:10;11.43;;;6.03;;
64291;SDS011;50628;51.008;13.658;2023-04-07T08:21:13;10.40;;;6.30;;
64291;SDS011;50628;51.008;13.658;2023-04-07T08:26:15;11.17;;;5.13;;
64291;SDS011;50628;51.008;13.658;2023-04-07T08:31:17;10.00;;;6.20;;
64291;SDS011;50628;51.008;13.658;2023-04-07T08:36:21;7.97;;;5.90;;
64291;SDS011;50628;51.008;13.658;2023-04-07T08:41:25;12.30;;;6.70;;
64291;SDS011;50628;51.008;13.658;2023-04-07T08:46:30;12.17;;;5.80;;
64291;SDS011;50628;51.008;13.658;2023-04-07T08:51:36;11.00;;;5.57;;
64291;SDS011;50628;51.008;13.658;2023-04-07T08:56:39;12.63;;;6.27;;
64291;SDS011;50628;51.008;13.658;2023-04-07T09:01:42;6.50;;;5.40;;
64291;SDS011;50628;51.008;13.658;2023-04-07T09:06:46;12.70;;;6.50;;
64291;SDS011;50628;51.008;13.658;2023-04-07T09:11:48;16.57;;;6.20;;
64291;SDS011;50628;51.008;13.658;2023-04-07T09:16:50;14.00;;;6.43;;
64291;SDS011;50628;51.008;13.658;2023-04-07T09:21:53;10.13;;;6.57;;
64291;SDS011;50628;51.008;13.658;2023-04-07T09:27:08;11.17;;;6.00;;
64291;SDS011;50628;51.008;13.658;2023-04-07T09:32:11;9.83;;;6.47;;
64291;SDS011;50628;51.008;13.658;2023-04-07T09:37:23;11.97;;;6.50;;
64291;SDS011;50628;51.008;13.658;2023-04-07T09:42:25;11.77;;;7.23;;
64291;SDS011;50628;51.008;13.658;2023-04-07T09:47:31;11.47;;;6.40;;
64291;SDS011;50628;51.008;13.658;2023-04-07T09:58:00;11.23;;;6.43;;
64291;SDS011;50628;51.008;13.658;2023-04-07T10:03:05;9.43;;;6.47;;
64291;SDS011;50628;51.008;13.658;2023-04-07T10:08:09;8.87;;;6.07;;
64291;SDS011;50628;51.008;13.658;2023-04-07T10:13:11;9.30;;;6.23;;
64291;SDS011;50628;51.008;13.658;2023-04-07T10:18:13;9.20;;;6.20;;
64291;SDS011;50628;51.008;13.658;2023-04-07T10:23:20;7.20;;;5.47;;
64291;SDS011;50628;51.008;13.658;2023-04-07T10:28:26;12.00;;;5.43;;
64291;SDS011;50628;51.008;13.658;2023-04-07T10:33:44;9.93;;;6.00;;
64291;SDS011;50628;51.008;13.658;2023-04-07T10:44:45;8.13;;;5.67;;
64291;SDS011;50628;51.008;13.658;2023-04-07T10:50:13;8.33;;;5.13;;
64291;SDS011;50628;51.008;13.658;2023-04-07T11:00:39;11.33;;;4.70;;
64291;SDS011;50628;51.008;13.658;2023-04-07T11:05:41;17.33;;;6.03;;
64291;SDS011;50628;51.008;13.658;2023-04-07T11:10:47;6.33;;;4.03;;
64291;SDS011;50628;51.008;13.658;2023-04-07T11:15:49;7.23;;;4.37;;
64291;SDS011;50628;51.008;13.658;2023-04-07T11:20:51;7.90;;;4.43;;
64291;SDS011;50628;51.008;13.658;2023-04-07T11:25:59;9.53;;;4.90;;
64291;SDS011;50628;51.008;13.658;2023-04-07T11:31:02;5.83;;;3.93;;
64291;SDS011;50628;51.008;13.658;2023-04-07T11:36:05;8.40;;;4.67;;
64291;SDS011;50628;51.008;13.658;2023-04-07T11:41:12;10.57;;;6.53;;
64291;SDS011;50628;51.008;13.658;2023-04-07T11:46:15;8.10;;;4.97;;
64291;SDS011;50628;51.008;13.658;2023-04-07T11:51:19;6.77;;;4.67;;
64291;SDS011;50628;51.008;13.658;2023-04-07T11:56:25;8.90;;;5.67;;
64291;SDS011;50628;51.008;13.658;2023-04-07T12:01:37;9.40;;;4.77;;
64291;SDS011;50628;51.008;13.658;2023-04-07T12:06:40;7.10;;;4.73;;
64291;SDS011;50628;51.008;13.658;2023-04-07T12:11:48;8.50;;;5.33;;
64291;SDS011;50628;51.008;13.658;2023-04-07T12:16:51;9.23;;;5.20;;
64291;SDS011;50628;51.008;13.658;2023-04-07T12:21:55;7.13;;;4.70;;
64291;SDS011;50628;51.008;13.658;2023-04-07T12:26:58;7.80;;;5.30;;
64291;SDS011;50628;51.008;13.658;2023-04-07T12:32:01;6.73;;;4.50;;
64291;SDS011;50628;51.008;13.658;2023-04-07T12:37:03;7.10;;;4.93;;
64291;SDS011;50628;51.008;13.658;2023-04-07T12:42:07;8.60;;;4.97;;
64291;SDS011;50628;51.008;13.658;2023-04-07T12:47:11;6.73;;;5.10;;
64291;SDS011;50628;51.008;13.658;2023-04-07T12:52:13;9.63;;;6.03;;
64291;SDS011;50628;51.008;13.658;2023-04-07T12:57:16;5.27;;;4.20;;
64291;SDS011;50628;51.008;13.658;2023-04-07T13:02:18;8.90;;;5.10;;
64291;SDS011;50628;51.008;13.658;2023-04-07T13:07:20;15.63;;;6.00;;
64291;SDS011;50628;51.008;13.658;2023-04-07T13:12:24;8.50;;;5.23;;
64291;SDS011;50628;51.008;13.658;2023-04-07T13:17:26;9.70;;;5.53;;
64291;SDS011;50628;51.008;13.658;2023-04-07T13:22:29;7.30;;;4.97;;
64291;SDS011;50628;51.008;13.658;2023-04-07T13:27:32;11.13;;;6.13;;
64291;SDS011;50628;51.008;13.658;2023-04-07T13:32:34;11.10;;;6.30;;
64291;SDS011;50628;51.008;13.658;2023-04-07T13:37:36;7.70;;;6.20;;
64291;SDS011;50628;51.008;13.658;2023-04-07T13:42:39;11.23;;;6.50;;
64291;SDS011;50628;51.008;13.658;2023-04-07T13:47:41;9.93;;;7.37;;
64291;SDS011;50628;51.008;13.658;2023-04-07T13:52:43;17.47;;;7.33;;
64291;SDS011;50628;51.008;13.658;2023-04-07T13:57:46;8.40;;;6.10;;
64291;SDS011;50628;51.008;13.658;2023-04-07T14:02:48;8.47;;;6.57;;
64291;SDS011;50628;51.008;13.658;2023-04-07T14:07:50;8.50;;;5.73;;
64291;SDS011;50628;51.008;13.658;2023-04-07T14:12:53;12.20;;;6.47;;
64291;SDS011;50628;51.008;13.658;2023-04-07T14:17:55;12.03;;;6.10;;
64291;SDS011;50628;51.008;13.658;2023-04-07T14:22:57;10.93;;;6.23;;
64291;SDS011;50628;51.008;13.658;2023-04-07T14:28:00;8.40;;;5.50;;
64291;SDS011;50628;51.008;13.658;2023-04-07T14:33:02;8.90;;;5.90;;
64291;SDS011;50628;51.008;13.658;2023-04-07T14:38:04;9.40;;;6.13;;
64291;SDS011;50628;51.008;13.658;2023-04-07T14:43:08;9.90;;;6.57;;
64291;SDS011;50628;51.008;13.658;2023-04-07T14:48:10;11.87;;;6.57;;
64291;SDS011;50628;51.008;13.658;2023-04-07T14:53:12;9.00;;;6.20;;
64291;SDS011;50628;51.008;13.658;2023-04-07T14:58:16;12.53;;;7.00;;
64291;SDS011;50628;51.008;13.658;2023-04-07T15:03:18;8.83;;;7.07;;
64291;SDS011;50628;51.008;13.658;2023-04-07T15:08:20;14.13;;;7.27;;
64291;SDS011;50628;51.008;13.658;2023-04-07T15:13:23;14.10;;;9.67;;
64291;SDS011;50628;51.008;13.658;2023-04-07T15:18:25;8.97;;;6.63;;
64291;SDS011;50628;51.008;13.658;2023-04-07T15:23:27;9.80;;;6.07;;
64291;SDS011;50628;51.008;13.658;2023-04-07T15:28:30;11.40;;;7.10;;
64291;SDS011;50628;51.008;13.658;2023-04-07T15:33:32;10.43;;;6.80;;
64291;SDS011;50628;51.008;13.658;2023-04-07T15:38:35;10.90;;;7.53;;
64291;SDS011;50628;51.008;13.658;2023-04-07T15:43:39;9.67;;;6.80;;
64291;SDS011;50628;51.008;13.658;2023-04-07T15:48:41;9.70;;;6.87;;
64291;SDS011;50628;51.008;13.658;2023-04-07T15:53:43;8.53;;;6.30;;
64291;SDS011;50628;51.008;13.658;2023-04-07T15:58:46;8.13;;;5.93;;
64291;SDS011;50628;51.008;13.658;2023-04-07T16:03:48;14.63;;;8.10;;
64291;SDS011;50628;51.008;13.658;2023-04-07T16:08:50;11.30;;;6.93;;
64291;SDS011;50628;51.008;13.658;2023-04-07T16:13:53;12.13;;;7.70;;
64291;SDS011;50628;51.008;13.658;2023-04-07T16:18:55;12.63;;;7.50;;
64291;SDS011;50628;51.008;13.658;2023-04-07T16:23:57;10.70;;;7.17;;
64291;SDS011;50628;51.008;13.658;2023-04-07T16:29:00;14.50;;;7.60;;
64291;SDS011;50628;51.008;13.658;2023-04-07T16:34:02;12.03;;;7.27;;
64291;SDS011;50628;51.008;13.658;2023-04-07T16:39:04;12.70;;;7.90;;
64291;SDS011;50628;51.008;13.658;2023-04-07T16:44:07;12.03;;;7.73;;
64291;SDS011;50628;51.008;13.658;2023-04-07T16:49:09;17.57;;;9.60;;
64291;SDS011;50628;51.008;13.658;2023-04-07T16:54:11;16.57;;;8.93;;
64291;SDS011;50628;51.008;13.658;2023-04-07T16:59:14;15.33;;;8.33;;
64291;SDS011;50628;51.008;13.658;2023-04-07T17:04:16;13.70;;;8.57;;
64291;SDS011;50628;51.008;13.658;2023-04-07T17:09:18;11.00;;;7.43;;
64291;SDS011;50628;51.008;13.658;2023-04-07T17:14:22;18.73;;;11.13;;
64291;SDS011;50628;51.008;13.658;2023-04-07T17:19:23;16.70;;;8.43;;
64291;SDS011;50628;51.008;13.658;2023-04-07T17:24:25;12.57;;;8.07;;
64291;SDS011;50628;51.008;13.658;2023-04-07T17:29:29;11.57;;;6.73;;
64291;SDS011;50628;51.008;13.658;2023-04-07T17:34:30;11.67;;;7.87;;
64291;SDS011;50628;51.008;13.658;2023-04-07T17:39:32;15.23;;;8.17;;
64291;SDS011;50628;51.008;13.658;2023-04-07T17:44:35;8.80;;;6.27;;
64291;SDS011;50628;51.008;13.658;2023-04-07T17:49:37;9.00;;;6.60;;
64291;SDS011;50628;51.008;13.658;2023-04-07T17:54:39;10.60;;;6.70;;
64291;SDS011;50628;51.008;13.658;2023-04-07T17:59:43;15.60;;;7.47;;
64291;SDS011;50628;51.008;13.658;2023-04-07T18:04:47;18.67;;;7.63;;
64291;SDS011;50628;51.008;13.658;2023-04-07T18:09:49;13.70;;;6.73;;
64291;SDS011;50628;51.008;13.658;2023-04-07T18:14:52;11.23;;;6.63;;
64291;SDS011;50628;51.008;13.658;2023-04-07T18:19:54;13.23;;;7.67;;
64291;SDS011;50628;51.008;13.658;2023-04-07T18:24:57;13.87;;;9.13;;
64291;SDS011;50628;51.008;13.658;2023-04-07T18:30:00;20.43;;;8.47;;
64291;SDS011;50628;51.008;13.658;2023-04-07T18:35:02;11.73;;;7.63;;
64291;SDS011;50628;51.008;13.658;2023-04-07T18:40:05;15.17;;;9.40;;
64291;SDS011;50628;51.008;13.658;2023-04-07T18:45:09;11.17;;;7.27;;
64291;SDS011;50628;51.008;13.658;2023-04-07T18:50:11;15.47;;;7.80;;
64291;SDS011;50628;51.008;13.658;2023-04-07T18:55:13;11.67;;;8.07;;
64291;SDS011;50628;51.008;13.658;2023-04-07T19:00:16;13.70;;;11.17;;
64291;SDS011;50628;51.008;13.658;2023-04-07T19:05:18;17.07;;;8.83;;
64291;SDS011;50628;51.008;13.658;2023-04-07T19:10:20;16.53;;;9.60;;
64291;SDS011;50628;51.008;13.658;2023-04-07T19:15:24;15.83;;;10.13;;
64291;SDS011;50628;51.008;13.658;2023-04-07T19:20:26;16.93;;;10.73;;
64291;SDS011;50628;51.008;13.658;2023-04-07T19:25:29;14.60;;;10.53;;
64291;SDS011;50628;51.008;13.658;2023-04-07T19:30:32;15.43;;;10.07;;
64291;SDS011;50628;51.008;13.658;2023-04-07T19:35:34;16.00;;;11.20;;
64291;SDS011;50628;51.008;13.658;2023-04-07T19:40:38;14.73;;;10.50;;
64291;SDS011;50628;51.008;13.658;2023-04-07T19:45:41;17.10;;;13.43;;
64291;SDS011;50628;51.008;13.658;2023-04-07T19:50:46;15.23;;;11.80;;
64291;SDS011;50628;51.008;13.658;2023-04-07T19:55:48;16.33;;;12.43;;
64291;SDS011;50628;51.008;13.658;2023-04-07T20:00:52;17.40;;;12.63;;
64291;SDS011;50628;51.008;13.658;2023-04-07T20:05:54;17.10;;;13.33;;
64291;SDS011;50628;51.008;13.658;2023-04-07T20:10:56;17.57;;;12.00;;
64291;SDS011;50628;51.008;13.658;2023-04-07T20:15:59;18.20;;;13.43;;
64291;SDS011;50628;51.008;13.658;2023-04-07T20:21:02;16.27;;;12.17;;
64291;SDS011;50628;51.008;13.658;2023-04-07T20:26:05;18.90;;;13.33;;
64291;SDS011;50628;51.008;13.658;2023-04-07T20:31:09;15.40;;;11.37;;
64291;SDS011;50628;51.008;13.658;2023-04-07T20:36:11;14.00;;;11.50;;
64291;SDS011;50628;51.008;13.658;2023-04-07T20:41:13;12.33;;;9.97;;
64291;SDS011;50628;51.008;13.658;2023-04-07T20:46:17;12.40;;;10.53;;
64291;SDS011;50628;51.008;13.658;2023-04-07T20:51:19;12.87;;;8.57;;
64291;SDS011;50628;51.008;13.658;2023-04-07T20:56:21;10.70;;;8.03;;
64291;SDS011;50628;51.008;13.658;2023-04-07T21:01:24;9.57;;;7.37;;
64291;SDS011;50628;51.008;13.658;2023-04-07T21:06:26;10.53;;;7.43;;
64291;SDS011;50628;51.008;13.658;2023-04-07T21:11:28;12.67;;;8.60;;
64291;SDS011;50628;51.008;13.658;2023-04-07T21:16:31;11.57;;;9.10;;
64291;SDS011;50628;51.008;13.658;2023-04-07T21:21:33;14.70;;;9.63;;
64291;SDS011;50628;51.008;13.658;2023-04-07T21:26:35;15.73;;;8.27;;
64291;SDS011;50628;51.008;13.658;2023-04-07T21:31:38;11.17;;;7.87;;
64291;SDS011;50628;51.008;13.658;2023-04-07T21:36:41;9.93;;;8.10;;
64291;SDS011;50628;51.008;13.658;2023-04-07T21:41:43;10.87;;;8.10;;
64291;SDS011;50628;51.008;13.658;2023-04-07T21:46:46;13.20;;;8.77;;
64291;SDS011;50628;51.008;13.658;2023-04-07T21:51:48;11.90;;;8.50;;
64291;SDS011;50628;51.008;13.658;2023-04-07T21:56:50;11.57;;;7.87;;
64291;SDS011;50628;51.008;13.658;2023-04-07T22:01:54;9.43;;;8.10;;
64291;SDS011;50628;51.008;13.658;2023-04-07T22:06:56;14.67;;;8.57;;
64291;SDS011;50628;51.008;13.658;2023-04-07T22:11:58;9.70;;;7.57;;
64291;SDS011;50628;51.008;13.658;2023-04-07T22:22:10;11.20;;;8.30;;
64291;SDS011;50628;51.008;13.658;2023-04-07T22:27:12;10.80;;;8.47;;
64291;SDS011;50628;51.008;13.658;2023-04-07T22:32:13;15.27;;;10.13;;
64291;SDS011;50628;51.008;13.658;2023-04-07T22:37:17;10.77;;;8.47;;
64291;SDS011;50628;51.008;13.658;2023-04-07T22:42:18;11.20;;;8.17;;
64291;SDS011;50628;51.008;13.658;2023-04-07T22:47:20;12.40;;;8.10;;
64291;SDS011;50628;51.008;13.658;2023-04-07T22:52:23;9.30;;;7.67;;
64291;SDS011;50628;51.008;13.658;2023-04-07T22:57:25;10.77;;;8.40;;
64291;SDS011;50628;51.008;13.658;2023-04-07T23:02:27;11.30;;;9.70;;
64291;SDS011;50628;51.008;13.658;2023-04-07T23:07:30;11.27;;;9.27;;
64291;SDS011;50628;51.008;13.658;2023-04-07T23:12:32;11.53;;;9.60;;
64291;SDS011;50628;51.008;13.658;2023-04-07T23:17:35;14.80;;;10.33;;
64291;SDS011;50628;51.008;13.658;2023-04-07T23:22:38;10.90;;;9.57;;
64291;SDS011;50628;51.008;13.658;2023-04-07T23:27:40;11.80;;;9.63;;
64291;SDS011;50628;51.008;13.658;2023-04-07T23:32:42;12.80;;;10.43;;
64291;SDS011;50628;51.008;13.658;2023-04-07T23:37:45;14.20;;;9.53;;
64291;SDS011;50628;51.008;13.658;2023-04-07T23:42:47;12.37;;;10.67;;
64291;SDS011;50628;51.008;13.658;2023-04-07T23:47:48;10.77;;;9.60;;
64291;SDS011;50628;51.008;13.658;2023-04-07T23:52:52;11.63;;;9.50;;
64291;SDS011;50628;51.008;13.658;2023-04-07T23:57:54;11.57;;;10.27;;
